Time;durP1;ratioP1;P1;durP2;ratioP2;P2;SDS_P1;SDS_P2;PMS_P1;PMS_P2;Temp;Humidity;BMP_temperature;BMP_pressure;BME280_temperature;BME280_humidity;BME280_pressure;Samples;Min_cycle;Max_cycle;Signal;HPM_P1;HPM_P2
2022/06/13 00:01:33;;;;;;;28.02;10.35;;;;;;;12.10;88.17;101999.66;5043228;28;20040;-67
2022/06/13 00:04:00;;;;;;;25.13;10.45;;;;;;;12.07;88.54;101989.94;5043585;28;20047;-67
2022/06/13 00:06:25;;;;;;;25.77;10.50;;;;;;;12.08;88.52;101991.63;5045173;28;20492;-67
2022/06/13 00:08:51;;;;;;;19.75;10.02;;;;;;;12.07;88.63;101994.59;5049822;28;20033;-67
2022/06/13 00:11:20;;;;;;;21.20;10.80;;;;;;;12.05;88.52;101991.19;5047538;28;20055;-67
2022/06/13 00:13:48;;;;;;;24.05;10.93;;;;;;;12.05;88.38;101982.94;5044800;28;20029;-67
2022/06/13 00:16:14;;;;;;;29.10;10.80;;;;;;;12.13;88.10;101986.31;5045792;28;20525;-67
2022/06/13 00:18:47;;;;;;;21.92;11.80;;;;;;;12.12;88.13;101981.88;5043896;28;20021;-67
2022/06/13 00:21:12;;;;;;;28.33;11.77;;;;;;;12.10;87.63;101974.88;5044808;28;20474;-67
2022/06/13 00:23:38;;;;;;;23.52;11.02;;;;;;;12.06;88.74;101984.63;5045770;28;20079;-67
2022/06/13 00:26:03;;;;;;;27.92;11.10;;;;;;;11.94;89.60;101987.19;5045436;28;20331;-67
2022/06/13 00:28:29;;;;;;;27.88;12.07;;;;;;;11.94;90.39;101982.50;5043943;28;20063;-67
2022/06/13 00:30:54;;;;;;;22.63;11.35;;;;;;;11.91;89.32;101982.97;5043736;28;20116;-68
2022/06/13 00:33:19;;;;;;;27.83;12.55;;;;;;;11.89;90.13;101985.06;5045975;28;20428;-67
2022/06/13 00:35:44;;;;;;;28.52;12.05;;;;;;;11.89;90.17;101981.47;5044340;28;20052;-67
2022/06/13 00:38:11;;;;;;;28.23;11.85;;;;;;;11.93;90.49;101977.22;5044287;28;20413;-66
2022/06/13 00:40:37;;;;;;;24.70;13.38;;;;;;;12.00;90.71;101974.47;5045481;28;20021;-67
2022/06/13 00:43:05;;;;;;;28.13;12.98;;;;;;;12.06;90.62;101973.59;5045059;28;20074;-67
2022/06/13 00:45:34;;;;;;;;;;;;;;;12.25;87.88;101969.16;5046376;28;20438;-67
2022/06/13 00:48:00;;;;;;;29.23;12.80;;;;;;;12.24;89.72;101961.94;5041274;28;19916;-67
2022/06/13 00:50:30;;;;;;;30.75;13.85;;;;;;;12.29;89.12;101957.47;5045318;28;20070;-67
2022/06/13 00:52:58;;;;;;;26.67;12.15;;;;;;;12.35;89.66;101958.53;5043800;28;20137;-67
2022/06/13 00:55:49;;;;;;;31.45;13.07;;;;;;;12.46;89.27;101964.22;5044587;28;20422;-68
2022/06/13 00:58:15;;;;;;;32.97;13.35;;;;;;;12.51;89.57;101962.72;5038566;28;20123;-67
2022/06/13 01:00:43;;;;;;;32.55;12.77;;;;;;;12.52;89.11;101958.91;5044263;28;20143;-67
2022/06/13 01:03:10;;;;;;;32.90;14.40;;;;;;;12.58;88.99;101958.06;5042410;28;20049;-68
2022/06/13 01:05:40;;;;;;;25.63;13.43;;;;;;;12.62;87.21;101951.91;5044533;28;20025;-67
2022/06/13 01:08:08;;;;;;;32.00;13.48;;;;;;;12.70;86.81;101953.56;5042082;23;20416;-67
2022/06/13 01:13:35;;;;;;;30.20;12.82;;;;;;;12.85;84.94;101950.53;5024646;28;20056;-68
2022/06/13 01:16:17;;;;;;;25.65;13.48;;;;;;;12.93;86.15;101959.41;5025377;28;20108;-67
2022/06/13 01:18:57;;;;;;;32.78;13.23;;;;;;;13.01;83.42;101958.28;5022013;28;20020;-67
2022/06/13 01:21:31;;;;;;;31.35;13.43;;;;;;;13.04;82.91;101954.25;5023493;28;20026;-67
2022/06/13 01:24:25;;;;;;;30.73;12.93;;;;;;;13.08;82.50;101958.28;5025310;28;20374;-67
2022/06/13 01:27:38;;;;;;;29.88;13.45;;;;;;;13.14;82.47;101949.13;5023922;28;20047;-67
2022/06/13 01:30:23;;;;;;;29.33;12.48;;;;;;;13.13;82.61;101962.06;4997117;28;20041;-67
2022/06/13 01:33:22;;;;;;;24.40;11.85;;;;;;;13.18;84.18;101961.41;5023797;28;20048;-67
2022/06/13 01:36:07;;;;;;;21.92;11.75;;;;;;;13.23;85.36;101961.63;5024787;28;20112;-67
2022/06/13 01:39:01;;;;;;;25.45;11.73;;;;;;;13.20;86.32;101949.06;5024517;28;20920;-67
2022/06/13 01:41:37;;;;;;;23.90;11.30;;;;;;;13.14;86.64;101949.13;5025021;28;20021;-67
2022/06/13 01:44:22;;;;;;;29.33;13.20;;;;;;;13.17;87.20;101940.38;5024747;28;20049;-67
2022/06/13 01:47:12;;;;;;;24.17;11.20;;;;;;;13.11;84.13;101938.50;5024397;28;20187;-69
2022/06/13 01:50:09;;;;;;;22.83;10.15;;;;;;;13.15;83.37;101931.50;5023915;28;20022;-68
2022/06/13 01:52:55;;;;;;;21.67;10.33;;;;;;;13.20;82.96;101942.72;5023564;28;20491;-67
2022/06/13 01:55:37;;;;;;;21.25;9.60;;;;;;;13.23;82.81;101950.59;5024114;28;20058;-68
2022/06/13 01:58:23;;;;;;;21.48;10.32;;;;;;;13.23;83.84;101947.81;5022792;28;20421;-67
2022/06/13 02:00:58;;;;;;;24.75;10.15;;;;;;;13.22;82.58;101951.63;5024492;28;20047;-67
2022/06/13 02:03:31;;;;;;;20.65;9.48;;;;;;;13.25;83.66;101951.19;5020245;28;20107;-68
2022/06/13 02:06:05;;;;;;;22.15;8.95;;;;;;;13.31;83.14;101952.22;5023014;28;20647;-67
2022/06/13 02:08:36;;;;;;;22.40;9.10;;;;;;;13.33;82.55;101947.31;5021531;28;20044;-67
2022/06/13 02:11:13;;;;;;;17.67;8.98;;;;;;;13.39;82.76;101961.09;5024237;28;20064;-67
2022/06/13 02:13:43;;;;;;;20.17;8.68;;;;;;;13.41;83.05;101955.34;5023535;28;20049;-68
2022/06/13 02:16:15;;;;;;;18.38;7.88;;;;;;;13.45;83.46;101956.59;5023540;28;20048;-67
2022/06/13 02:19:02;;;;;;;16.60;8.70;;;;;;;13.50;83.02;101954.84;5023861;28;20014;-68
2022/06/13 02:21:40;;;;;;;22.08;8.50;;;;;;;13.53;81.94;101959.06;5023228;28;20064;-67
2022/06/13 02:24:09;;;;;;;18.60;8.80;;;;;;;13.58;81.98;101952.88;5025066;28;20030;-67
2022/06/13 02:26:37;;;;;;;17.05;9.55;;;;;;;13.59;83.18;101946.31;5026248;28;20410;-67
2022/06/13 02:29:17;;;;;;;16.48;8.32;;;;;;;13.61;82.31;101941.41;5028048;28;20432;-67
2022/06/13 02:31:54;;;;;;;15.70;8.23;;;;;;;13.62;82.58;101943.09;5027035;28;20053;-67
2022/06/13 02:34:29;;;;;;;17.90;8.25;;;;;;;13.64;81.42;101938.19;5008706;28;20033;-67
2022/06/13 02:37:15;;;;;;;19.50;8.85;;;;;;;13.63;82.25;101942.84;5015162;28;20029;-67
2022/06/13 02:39:55;;;;;;;20.02;8.50;;;;;;;13.63;82.27;101942.00;5027378;28;20565;-67
2022/06/13 02:42:30;;;;;;;23.88;8.65;;;;;;;13.64;82.02;101943.72;5027680;28;20029;-67
2022/06/13 02:45:13;;;;;;;17.08;8.98;;;;;;;13.64;82.26;101941.81;5027605;28;20034;-68
2022/06/13 02:47:41;;;;;;;22.05;10.43;;;;;;;13.62;82.94;101943.09;5026697;28;20021;-67
2022/06/13 02:50:38;;;;;;;;;;;;;;;13.69;81.04;101941.13;5026281;28;20198;-67
2022/06/13 02:53:22;;;;;;;18.48;9.30;;;;;;;13.63;82.08;101936.47;4991507;28;19917;-67
2022/06/13 02:56:02;;;;;;;20.10;9.55;;;;;;;13.61;82.24;101924.84;5026324;28;20060;-67
2022/06/13 02:58:32;;;;;;;21.08;9.50;;;;;;;13.59;82.22;101929.75;5025905;28;20048;-67
2022/06/13 03:01:06;;;;;;;22.10;9.38;;;;;;;13.58;82.81;101928.03;5026560;28;20045;-67
2022/06/13 03:03:41;;;;;;;22.08;10.07;;;;;;;13.56;82.91;101919.97;5027160;28;20030;-67
2022/06/13 03:06:26;;;;;;;17.90;9.98;;;;;;;13.57;82.97;101926.34;5024834;28;20116;-67
2022/06/13 03:08:56;;;;;;;21.08;10.48;;;;;;;13.53;82.90;101925.09;5026247;28;20029;-69
2022/06/13 03:11:40;;;;;;;22.70;10.15;;;;;;;13.54;83.38;101935.09;5026612;28;20033;-68
2022/06/13 03:14:21;;;;;;;19.60;10.82;;;;;;;13.53;83.47;101927.84;5007090;28;20109;-67
2022/06/13 03:16:58;;;;;;;21.63;10.98;;;;;;;13.47;83.30;101938.72;5016831;28;20021;-67
2022/06/13 03:19:42;;;;;;;24.85;10.93;;;;;;;13.48;83.89;101940.44;5027347;28;20068;-68
2022/06/13 03:22:14;;;;;;;19.92;10.50;;;;;;;13.45;83.45;101937.28;5023930;28;20537;-67
2022/06/13 03:25:13;;;;;;;20.25;11.45;;;;;;;13.44;83.57;101944.72;5027259;28;20029;-67
2022/06/13 03:27:46;;;;;;;20.15;10.93;;;;;;;13.39;83.86;101944.53;5025213;28;20025;-67
2022/06/13 03:30:14;;;;;;;19.67;11.63;;;;;;;13.35;83.89;101939.69;5026249;28;20022;-67
2022/06/13 03:35:49;;;;;;;;;;;;;;;13.37;82.30;101943.88;5020968;28;20036;-67
2022/06/13 03:38:19;;;;;;;20.92;12.13;;;;;;;13.26;84.12;101952.03;5025233;28;19917;-67
2022/06/13 03:40:52;;;;;;;24.60;12.02;;;;;;;13.18;84.87;101945.69;5024749;28;20053;-67
2022/06/13 03:43:27;;;;;;;20.20;11.48;;;;;;;13.14;85.59;101949.97;5026955;28;20038;-67
2022/06/13 03:46:03;;;;;;;25.13;12.27;;;;;;;13.13;85.44;101952.94;5025327;28;20413;-68
2022/06/13 03:48:54;;;;;;;19.90;11.93;;;;;;;13.15;85.30;101954.41;5025781;28;20068;-67
2022/06/13 03:51:27;;;;;;;20.73;12.32;;;;;;;13.12;85.83;101957.59;5025498;28;20045;-67
2022/06/13 03:54:15;;;;;;;25.65;13.45;;;;;;;13.13;85.80;101955.69;5024986;28;20029;-67
2022/06/13 03:56:50;;;;;;;25.73;13.23;;;;;;;13.10;86.35;101972.69;5022861;28;20021;-67
2022/06/13 03:59:23;;;;;;;19.83;11.95;;;;;;;13.06;86.82;101963.16;5010040;28;20053;-67
2022/06/13 04:01:58;;;;;;;25.77;12.50;;;;;;;13.04;86.73;101971.66;5007261;28;20030;-67
2022/06/13 04:04:37;;;;;;;28.92;13.13;;;;;;;13.03;86.80;101969.97;5006703;28;20092;-68
2022/06/13 04:07:03;;;;;;;26.98;13.80;;;;;;;13.01;86.81;101971.22;5022822;28;20049;-67
2022/06/13 04:09:37;;;;;;;25.10;13.20;;;;;;;13.04;86.90;101971.66;5025400;28;20080;-67
2022/06/13 04:12:17;;;;;;;25.05;12.90;;;;;;;13.05;87.05;101978.84;5024137;28;20029;-67
2022/06/13 04:15:13;;;;;;;24.45;13.25;;;;;;;13.07;86.84;101981.38;5007167;28;20034;-67
2022/06/13 04:18:01;;;;;;;26.13;14.85;;;;;;;13.04;87.84;101981.84;5006106;28;20029;-67
2022/06/13 04:20:59;;;;;;;25.40;13.43;;;;;;;13.02;88.00;101978.44;5020925;28;20422;-67
2022/06/13 04:23:43;;;;;;;28.23;13.48;;;;;;;13.06;88.30;101983.28;5002243;28;20080;-68
2022/06/13 04:26:18;;;;;;;30.80;13.95;;;;;;;13.08;88.16;101983.09;5022170;28;20080;-67
2022/06/13 04:28:55;;;;;;;25.70;14.05;;;;;;;13.13;88.57;101988.81;5025190;28;20025;-67
2022/06/13 04:31:23;;;;;;;24.10;13.65;;;;;;;13.13;88.28;101992.41;5026149;28;20029;-67
2022/06/13 04:33:54;;;;;;;27.17;14.65;;;;;;;13.17;88.48;101988.13;5022599;28;20041;-66
2022/06/13 04:36:22;;;;;;;24.73;14.93;;;;;;;13.20;89.04;101995.13;5024224;28;20526;-67
2022/06/13 04:38:52;;;;;;;26.35;15.18;;;;;;;13.25;89.23;101989.81;5022165;28;20045;-67
2022/06/13 04:41:21;;;;;;;28.48;15.13;;;;;;;13.26;89.08;101986.00;5025833;28;20109;-67
2022/06/13 04:43:50;;;;;;;26.63;14.02;;;;;;;13.32;89.57;101985.09;5023982;28;20128;-68
2022/06/13 04:46:22;;;;;;;26.92;15.05;;;;;;;13.36;89.12;101980.00;5024494;28;20029;-68
2022/06/13 04:48:50;;;;;;;25.10;14.23;;;;;;;13.38;89.22;101980.59;5022230;28;20038;-68
2022/06/13 04:51:20;;;;;;;32.83;15.95;;;;;;;13.41;89.02;101983.78;5023524;28;20029;-67
2022/06/13 04:53:56;;;;;;;26.27;14.85;;;;;;;13.46;88.94;101992.22;5024864;28;20025;-68
2022/06/13 04:56:23;;;;;;;33.85;15.73;;;;;;;13.54;89.10;101993.06;5025187;28;20041;-68
2022/06/13 04:58:52;;;;;;;26.05;15.18;;;;;;;13.58;89.15;101994.28;5021733;28;20448;-67
2022/06/13 05:01:34;;;;;;;26.35;15.05;;;;;;;13.65;88.57;101990.41;5025722;28;20027;-67
2022/06/13 05:04:05;;;;;;;30.45;14.80;;;;;;;13.70;88.19;101998.03;5024348;28;20056;-67
2022/06/13 05:06:36;;;;;;;33.88;16.40;;;;;;;13.77;88.09;101993.28;5020723;28;20037;-67
2022/06/13 05:09:10;;;;;;;29.50;15.90;;;;;;;13.88;88.49;101998.09;5022350;28;20049;-67
2022/06/13 05:11:38;;;;;;;30.65;15.73;;;;;;;13.97;88.01;101996.75;5024882;28;20026;-67
2022/06/13 05:14:17;;;;;;;30.15;16.52;;;;;;;14.03;87.27;102006.88;5023565;28;20362;-67
2022/06/13 05:16:48;;;;;;;26.20;16.13;;;;;;;14.09;87.26;102007.06;5021408;28;20022;-67
2022/06/13 05:19:41;;;;;;;31.10;16.33;;;;;;;14.17;87.81;102015.06;5019965;28;20180;-67
2022/06/13 05:22:20;;;;;;;26.33;14.80;;;;;;;14.22;87.22;102009.72;5019421;28;20029;-67
2022/06/13 05:24:51;;;;;;;31.02;14.85;;;;;;;14.26;86.12;102013.72;5024241;28;20034;-67
2022/06/13 05:27:16;;;;;;;32.00;15.45;;;;;;;14.34;86.33;102007.88;5022820;28;20116;-67
2022/06/13 05:29:42;;;;;;;25.00;14.68;;;;;;;14.37;86.66;102014.88;5023322;28;20060;-67
2022/06/13 05:32:08;;;;;;;28.10;14.30;;;;;;;14.40;86.32;102019.97;5020966;28;20040;-67
2022/06/13 05:34:37;;;;;;;28.08;13.13;;;;;;;14.44;84.79;102022.03;5024239;28;20378;-68
2022/06/13 05:37:03;;;;;;;28.85;13.73;;;;;;;14.52;85.79;102029.22;5022448;28;20033;-67
2022/06/13 05:39:30;;;;;;;28.50;13.70;;;;;;;14.63;85.94;102022.94;5024391;28;20441;-67
2022/06/13 05:41:55;;;;;;;29.52;13.90;;;;;;;14.71;85.13;102030.94;5022613;28;20597;-68
2022/06/13 05:44:20;;;;;;;28.27;12.35;;;;;;;14.75;84.25;102025.78;5023179;28;20065;-67
2022/06/13 05:46:46;;;;;;;26.67;13.60;;;;;;;14.81;84.15;102033.19;5021882;28;20018;-67
2022/06/13 05:49:12;;;;;;;26.60;11.77;;;;;;;14.86;82.82;102041.63;5022076;28;20478;-67
2022/06/13 05:51:38;;;;;;;24.88;12.30;;;;;;;14.90;82.98;102040.09;5023595;28;20428;-67
2022/06/13 05:54:03;;;;;;;28.63;11.20;;;;;;;14.91;82.71;102039.03;5022839;28;20122;-68
2022/06/13 05:56:29;;;;;;;27.58;11.30;;;;;;;14.98;82.38;102041.69;5021768;28;20375;-68
2022/06/13 05:58:55;;;;;;;21.50;10.15;;;;;;;15.03;82.08;102042.69;5022318;28;20075;-68
2022/06/13 06:01:21;;;;;;;21.95;10.50;;;;;;;15.09;81.11;102051.16;5027406;28;20394;-68
2022/06/13 06:03:46;;;;;;;26.33;11.80;;;;;;;15.15;81.26;102044.69;5028405;28;20021;-68
2022/06/13 06:06:23;;;;;;;26.55;11.20;;;;;;;15.32;81.60;102059.59;5025604;28;20033;-68
2022/06/13 06:08:50;;;;;;;27.30;10.85;;;;;;;15.39;81.13;102065.88;5026983;28;20052;-68
2022/06/13 06:11:15;;;;;;;27.65;11.55;;;;;;;15.44;80.47;102057.72;5026522;28;20394;-68
2022/06/13 06:13:41;;;;;;;24.10;9.35;;;;;;;15.48;78.97;102064.47;5026511;28;20079;-68
2022/06/13 06:16:06;;;;;;;25.48;9.25;;;;;;;15.50;79.05;102065.06;5024304;28;20083;-67
2022/06/13 06:18:32;;;;;;;20.25;9.13;;;;;;;15.55;79.53;102068.00;5027099;28;20038;-67
2022/06/13 06:20:58;;;;;;;20.92;7.25;;;;;;;15.51;76.15;102066.78;5027101;28;20033;-68
2022/06/13 06:23:25;;;;;;;20.80;6.78;;;;;;;15.44;74.49;102071.56;5027852;28;20388;-67
2022/06/13 06:25:50;;;;;;;15.88;6.05;;;;;;;15.42;74.72;102078.41;5025761;28;20124;-68
2022/06/13 06:28:26;;;;;;;18.52;6.10;;;;;;;15.36;75.54;102077.44;5025922;28;20128;-66
2022/06/13 06:30:54;;;;;;;18.55;6.25;;;;;;;15.36;74.49;102084.88;5027468;28;20079;-67
2022/06/13 06:33:21;;;;;;;23.58;6.10;;;;;;;15.36;75.13;102085.72;5027748;28;20029;-66
2022/06/13 06:35:48;;;;;;;17.83;5.47;;;;;;;15.37;74.86;102092.97;5026833;28;20041;-66
2022/06/13 06:38:13;;;;;;;15.35;5.22;;;;;;;15.41;73.50;102087.78;5025987;28;20203;-66
2022/06/13 06:40:39;;;;;;;14.35;4.20;;;;;;;15.41;71.00;102079.47;5026382;28;20481;-67
2022/06/13 06:43:05;;;;;;;15.23;4.55;;;;;;;15.41;71.88;102083.13;5027098;28;20061;-66
2022/06/13 06:45:30;;;;;;;12.07;4.15;;;;;;;15.44;71.22;102092.88;5027431;28;20025;-66
2022/06/13 06:47:56;;;;;;;15.75;4.63;;;;;;;15.45;70.10;102102.84;5020323;28;20088;-67
2022/06/13 06:50:25;;;;;;;16.65;3.97;;;;;;;15.49;70.35;102104.94;5025123;28;20349;-68
2022/06/13 06:52:50;;;;;;;18.75;5.38;;;;;;;15.60;70.33;102108.00;5022030;28;20121;-67
2022/06/13 07:00:50;;;;;;;11.43;3.33;;;;;;;15.83;66.37;102097.06;5024991;28;20048;-67
2022/06/13 07:03:16;;;;;;;9.95;3.17;;;;;;;15.79;66.65;102104.97;5021114;28;20117;-66
2022/06/13 07:05:42;;;;;;;14.07;3.20;;;;;;;15.81;64.89;102099.19;5023472;28;20478;-67
2022/06/13 07:08:07;;;;;;;8.95;4.03;;;;;;;15.87;66.96;102111.28;5021611;28;20485;-67
2022/06/13 07:10:33;;;;;;;11.52;3.10;;;;;;;15.99;67.91;102106.63;5022979;28;20136;-67
2022/06/13 07:12:58;;;;;;;9.85;2.78;;;;;;;16.06;64.89;102099.03;5025617;28;20095;-67
2022/06/13 07:15:24;;;;;;;11.60;3.08;;;;;;;16.07;64.06;102093.28;5025955;28;20036;-67
2022/06/13 07:17:49;;;;;;;8.80;3.08;;;;;;;16.13;65.66;102096.19;5026543;28;20465;-67
2022/06/13 07:20:15;;;;;;;13.93;2.70;;;;;;;16.18;64.32;102099.09;5026435;28;20026;-67
2022/06/13 07:22:48;;;;;;;9.20;2.90;;;;;;;16.23;64.56;102102.00;5025651;28;20109;-67
2022/06/13 07:25:17;;;;;;;9.63;3.15;;;;;;;16.19;62.62;102100.78;5022765;28;20036;-67
2022/06/13 07:27:42;;;;;;;11.38;3.35;;;;;;;16.14;63.31;102104.25;5024548;28;20048;-67
2022/06/13 07:30:08;;;;;;;10.15;2.92;;;;;;;16.23;64.26;102111.16;5026879;28;20029;-68
2022/06/13 07:32:33;;;;;;;12.00;3.20;;;;;;;16.51;62.60;102109.63;5023325;28;20342;-66
2022/06/13 07:35:01;;;;;;;10.85;2.80;;;;;;;16.64;61.30;102111.31;5024628;28;20021;-66
2022/06/13 07:40:11;;;;;;;13.88;3.55;;;;;;;17.17;64.08;102113.97;5024990;28;20611;-67
2022/06/13 07:42:44;;;;;;;9.73;3.80;;;;;;;17.23;61.20;102107.44;5025357;28;20146;-67
2022/06/13 07:45:19;;;;;;;9.98;2.85;;;;;;;17.28;62.16;102115.03;5026943;28;20371;-66
2022/06/13 07:47:45;;;;;;;12.10;3.45;;;;;;;17.15;59.90;102115.31;5014805;28;20029;-66
2022/06/13 07:50:13;;;;;;;9.27;3.58;;;;;;;17.05;60.97;102122.31;5024926;28;20029;-67
2022/06/13 07:52:38;;;;;;;;;;;;;;;17.11;61.53;102115.78;5025767;28;20033;-67
2022/06/13 07:55:04;;;;;;;10.73;3.05;;;;;;;16.90;60.29;102124.75;5024935;28;19917;-67
2022/06/13 07:57:29;;;;;;;10.93;2.83;;;;;;;16.92;61.72;102130.88;5023363;28;20116;-67
2022/06/13 07:59:55;;;;;;;9.38;3.45;;;;;;;16.88;62.18;102128.84;5022649;28;20044;-67
2022/06/13 08:02:20;;;;;;;13.48;3.47;;;;;;;16.97;63.83;102147.66;5017591;28;20037;-67
2022/06/13 08:04:45;;;;;;;10.00;3.17;;;;;;;17.05;62.11;102138.13;5015149;28;20033;-67
2022/06/13 08:07:15;;;;;;;11.13;3.10;;;;;;;16.99;60.90;102145.50;5021763;28;20061;-67
2022/06/13 08:09:40;;;;;;;11.25;3.30;;;;;;;17.03;62.71;102152.25;5021630;28;20422;-67
2022/06/13 08:12:06;;;;;;;11.57;3.15;;;;;;;17.20;59.98;102148.75;5024943;28;20033;-67
2022/06/13 08:14:32;;;;;;;10.80;2.83;;;;;;;17.49;59.17;102149.66;5022540;28;20040;-67
2022/06/13 08:16:57;;;;;;;9.98;2.72;;;;;;;17.83;61.13;102154.28;5021968;28;20034;-68
2022/06/13 08:19:23;;;;;;;8.32;2.97;;;;;;;17.93;59.00;102150.84;5024320;28;20048;-68
2022/06/13 08:21:49;;;;;;;12.18;3.10;;;;;;;17.94;59.75;102149.75;5019767;28;20527;-67
2022/06/13 08:24:15;;;;;;;11.02;3.17;;;;;;;17.77;58.37;102160.00;5015940;28;20026;-67
2022/06/13 08:26:41;;;;;;;9.70;2.67;;;;;;;17.60;60.41;102163.53;5023236;28;20858;-67
2022/06/13 08:29:06;;;;;;;8.57;2.95;;;;;;;17.44;60.35;102169.00;5019493;28;20025;-67
2022/06/13 08:31:31;;;;;;;7.90;2.45;;;;;;;17.32;58.26;102172.63;5023669;28;20033;-67
2022/06/13 08:33:57;;;;;;;8.23;2.20;;;;;;;17.36;58.76;102162.72;5020154;28;20029;-67
2022/06/13 08:36:22;;;;;;;9.35;2.42;;;;;;;17.53;58.84;102167.50;5023916;28;20028;-68
2022/06/13 08:38:48;;;;;;;7.40;2.45;;;;;;;17.60;57.03;102171.00;5024015;28;20112;-67
2022/06/13 08:41:53;;;;;;;6.90;2.05;;;;;;;17.66;58.83;102174.75;5016595;28;20104;-67
2022/06/13 08:44:37;;;;;;;8.07;2.00;;;;;;;17.82;58.55;102168.44;5020735;28;20057;-67
2022/06/13 08:47:13;;;;;;;6.53;2.30;;;;;;;17.92;55.94;102170.56;5020766;28;20465;-67
2022/06/13 08:50:15;;;;;;;6.88;2.00;;;;;;;18.15;56.51;102168.53;5019360;28;20389;-67
2022/06/13 08:52:55;;;;;;;5.95;1.52;;;;;;;18.34;55.84;102180.28;4979900;28;20124;-67
2022/06/13 08:55:25;;;;;;;6.45;1.50;;;;;;;18.48;53.99;102175.25;5025841;28;20029;-68
2022/06/13 08:58:06;;;;;;;10.85;1.95;;;;;;;18.54;54.91;102179.78;5022031;28;20101;-67
2022/06/13 09:00:34;;;;;;;8.95;2.00;;;;;;;18.60;54.85;102184.38;5022227;28;20025;-68
2022/06/13 09:03:16;;;;;;;6.25;1.95;;;;;;;18.64;55.77;102195.81;5014528;28;20037;-68
2022/06/13 09:05:54;;;;;;;6.03;2.10;;;;;;;18.23;55.72;102189.53;5025197;28;20040;-68
2022/06/13 09:08:27;;;;;;;6.40;2.10;;;;;;;17.88;55.15;102195.22;5007140;28;20052;-68
2022/06/13 09:11:15;;;;;;;8.00;2.33;;;;;;;17.81;57.13;102208.44;5005445;28;20068;-69
2022/06/13 09:13:59;;;;;;;9.40;2.17;;;;;;;17.94;56.98;102204.50;5006220;28;20052;-68
2022/06/13 09:16:32;;;;;;;9.32;2.30;;;;;;;18.18;56.23;102205.28;5006696;28;20194;-69
2022/06/13 09:19:14;;;;;;;7.38;2.20;;;;;;;18.49;56.23;102210.31;5025104;28;20389;-68
2022/06/13 09:21:49;;;;;;;7.57;2.10;;;;;;;18.87;54.26;102206.84;5025813;28;20029;-68
2022/06/13 09:24:27;;;;;;;9.32;2.00;;;;;;;19.29;54.58;102211.94;5025232;28;20037;-68
2022/06/13 09:26:59;;;;;;;6.53;2.08;;;;;;;19.26;53.85;102212.47;5024569;28;20055;-69
2022/06/13 09:29:50;;;;;;;7.70;2.08;;;;;;;19.23;52.87;102212.97;5025683;28;20120;-68
2022/06/13 09:33:08;;;;;;;7.63;2.58;;;;;;;19.69;52.18;102211.69;5022789;28;20037;-68
2022/06/13 09:35:41;;;;;;;8.82;2.88;;;;;;;21.49;46.47;102209.53;4965563;28;20049;-68
2022/06/13 09:38:13;;;;;;;4.28;1.50;;;;;;;23.70;40.69;102204.78;5027925;28;20021;-69
2022/06/13 09:41:20;;;;;;;7.38;1.70;;;;;;;24.13;42.72;102212.72;5029880;28;20059;-68
2022/06/13 09:44:13;;;;;;;8.13;1.60;;;;;;;22.38;44.50;102218.84;4968208;28;20109;-68
2022/06/13 09:47:19;;;;;;;5.85;1.70;;;;;;;21.03;46.25;102231.53;5013313;28;20525;-67
2022/06/13 09:50:08;;;;;;;9.23;1.70;;;;;;;21.19;45.73;102227.78;5028692;28;20025;-68
2022/06/13 09:52:49;;;;;;;8.75;1.50;;;;;;;22.34;43.39;102231.72;5024231;28;20075;-68
2022/06/13 09:55:31;;;;;;;7.45;2.28;;;;;;;21.78;42.82;102229.53;5029313;28;20139;-68
2022/06/13 09:58:09;;;;;;;7.28;1.52;;;;;;;21.30;45.75;102234.31;5027070;28;20021;-68
2022/06/13 10:00:51;;;;;;;5.32;1.25;;;;;;;22.83;41.86;102223.66;5028606;28;20393;-68
2022/06/13 10:03:33;;;;;;;6.32;1.60;;;;;;;25.24;39.22;102225.16;5017276;28;20033;-68
2022/06/13 10:06:17;;;;;;;7.15;1.33;;;;;;;26.51;34.72;102235.97;5018596;28;20038;-68
2022/06/13 10:09:19;;;;;;;5.32;1.35;;;;;;;27.22;35.63;102234.84;5020223;28;20440;-68
2022/06/13 10:12:06;;;;;;;6.75;1.38;;;;;;;28.13;30.60;102228.47;5026030;28;20037;-67
2022/06/13 10:14:49;;;;;;;6.03;1.33;;;;;;;27.50;32.91;102243.34;5020836;28;20040;-68
2022/06/13 10:17:17;;;;;;;8.70;1.63;;;;;;;24.99;35.50;102243.06;5025243;28;20386;-68
2022/06/13 10:20:13;;;;;;;6.82;1.50;;;;;;;23.53;38.87;102244.38;5025365;28;20513;-68
2022/06/13 10:23:15;;;;;;;6.90;1.50;;;;;;;23.80;39.94;102243.19;5024711;28;20585;-68
2022/06/13 10:26:08;;;;;;;9.18;1.80;;;;;;;23.09;40.17;102251.72;5021828;28;20029;-67
2022/06/13 10:28:43;;;;;;;5.72;1.52;;;;;;;22.60;41.73;102246.59;5016270;28;20029;-68
2022/06/13 10:31:32;;;;;;;8.30;1.70;;;;;;;21.88;42.85;102245.53;5021158;28;20033;-68
2022/06/13 10:34:27;;;;;;;6.20;1.73;;;;;;;21.92;43.65;102249.47;5020789;28;20052;-68
2022/06/13 10:37:04;;;;;;;8.15;1.58;;;;;;;22.97;41.61;102243.59;5023316;28;20060;-68
2022/06/13 10:39:31;;;;;;;6.35;2.38;;;;;;;23.03;40.30;102251.72;5014346;28;20042;-68
2022/06/13 10:42:08;;;;;;;8.15;1.80;;;;;;;23.22;41.54;102249.19;5024525;28;20112;-68
2022/06/13 10:44:34;;;;;;;6.22;1.40;;;;;;;22.53;39.33;102247.72;5008808;28;20107;-68
2022/06/13 10:47:46;;;;;;;5.25;1.48;;;;;;;22.11;42.99;102244.25;5024723;28;20116;-68
2022/06/13 10:50:21;;;;;;;5.47;1.73;;;;;;;21.53;47.71;102246.19;5008111;28;20827;-68
2022/06/13 10:52:51;;;;;;;6.47;1.48;;;;;;;20.91;44.48;102245.69;5009311;28;20470;-67
2022/06/13 10:55:22;;;;;;;6.80;1.58;;;;;;;20.42;44.56;102250.47;5009658;28;20026;-68
2022/06/13 10:57:52;;;;;;;4.47;1.60;;;;;;;20.04;46.17;102252.31;5015903;28;20025;-68
2022/06/13 11:00:27;;;;;;;7.10;1.50;;;;;;;20.27;46.49;102244.75;5025228;28;20029;-68
2022/06/13 11:03:13;;;;;;;5.43;1.27;;;;;;;20.08;47.09;102245.09;5028441;28;20087;-68
2022/06/13 11:05:49;;;;;;;6.68;1.65;;;;;;;19.63;48.95;102256.50;5016780;28;20017;-68
2022/06/13 11:08:15;;;;;;;5.43;1.50;;;;;;;19.80;48.07;102248.06;5026603;28;20045;-68
2022/06/13 11:10:50;;;;;;;5.80;1.40;;;;;;;20.30;45.17;102247.03;5021267;28;20045;-68
2022/06/13 11:13:24;;;;;;;6.55;1.95;;;;;;;20.79;45.62;102247.00;5012644;28;20417;-68
2022/06/13 11:24:19;;;;;;;5.28;1.40;;;;;;;21.72;45.01;102256.63;5028372;28;20111;-68
2022/06/13 11:29:35;;;;;;;5.55;1.40;;;;;;;21.90;44.48;102257.28;5025861;28;20746;-66
2022/06/13 11:32:03;;;;;;;8.05;1.52;;;;;;;21.86;42.73;102251.41;5014386;28;20034;-68
2022/06/13 11:34:32;;;;;;;4.53;1.35;;;;;;;21.37;41.78;102251.66;5007544;28;20049;-68
2022/06/13 11:37:03;;;;;;;10.38;2.05;;;;;;;20.79;43.91;102252.59;5024810;28;20026;-68
2022/06/13 11:39:39;;;;;;;7.68;1.50;;;;;;;20.61;44.81;102257.41;5028021;28;20549;-68
2022/06/13 11:42:15;;;;;;;8.10;1.58;;;;;;;20.44;45.57;102251.94;5025077;28;20508;-67
2022/06/13 11:44:44;;;;;;;6.43;1.92;;;;;;;20.20;46.07;102256.94;5028200;28;20417;-68
2022/06/13 11:47:10;;;;;;;8.90;2.13;;;;;;;19.81;48.19;102258.97;5022462;28;20045;-67
2022/06/13 11:49:42;;;;;;;5.60;1.67;;;;;;;19.65;49.33;102262.66;5007140;28;20036;-68
2022/06/13 11:52:10;;;;;;;5.90;1.90;;;;;;;19.92;49.30;102259.94;5007511;28;20037;-67
2022/06/13 11:54:55;;;;;;;11.23;2.20;;;;;;;20.58;49.78;102260.75;5010052;28;20053;-67
2022/06/13 11:57:32;;;;;;;8.32;2.20;;;;;;;20.71;47.45;102260.31;5026777;28;20363;-67
2022/06/13 12:00:15;;;;;;;5.82;1.50;;;;;;;21.00;45.56;102265.63;5026452;28;20029;-68
2022/06/13 12:02:49;;;;;;;5.78;1.80;;;;;;;20.90;45.06;102251.56;5022409;28;20132;-68
2022/06/13 12:05:19;;;;;;;7.13;1.85;;;;;;;21.23;46.74;102258.78;5024534;28;20075;-68
2022/06/13 12:08:19;;;;;;;9.13;1.90;;;;;;;21.16;45.58;102261.00;5027362;28;20537;-68
2022/06/13 12:11:19;;;;;;;7.68;1.60;;;;;;;20.99;45.71;102256.41;5017978;28;20029;-68
2022/06/13 12:13:46;;;;;;;7.90;1.90;;;;;;;21.18;45.21;102247.56;5019552;28;20061;-68
2022/06/13 12:16:39;;;;;;;5.95;1.65;;;;;;;21.43;45.71;102244.16;5024521;28;20035;-67